CheckWX is a tool to help pilots better visualize weather data.  It is not intended as a substitute for an official pre-flight weather briefing.

23:10:24 UTC

48A METAR
Cochran Airport
Cochran, Georgia, USA
Current

35 mins ago

K48A 192235Z AUTO 25017G26KT 10SM SCT039 SCT047 18/10 A2960 RMK AO2 T01810096
Observed
Apr-19 @ 22:35 UTC
Wind
  • 250° at 17 KTS
  • Gusting to 26 KTS
Visibility
10 SM
Flight Rules
VFR
Cloud Levels
  • Scattered at 3,900' AGL
  • Scattered at 4,700' AGL
Temperature
18°C / 64°F
Dewpoint
10°C / 50°F
Humidity
60%
Altimeter
29.6" Hg
Pressure
1002.42 hPa
Previous

55 mins ago

K48A 192215Z AUTO 25016G22KT 10SM SCT037 SCT043 SCT055 19/10 A2958 RMK AO2 T01860103
Observed
Apr-19 @ 22:15 UTC
Wind
  • 250° at 16 KTS
  • Gusting to 22 KTS
Visibility
10 SM
Flight Rules
VFR
Cloud Levels
  • Scattered at 3,700' AGL
  • Scattered at 4,300' AGL
  • Scattered at 5,500' AGL
Temperature
19°C / 66°F
Dewpoint
10°C / 50°F
Humidity
56%
Altimeter
29.58" Hg
Pressure
1001.72 hPa
Previous

1 hour ago

K48A 192155Z AUTO 26016G26KT 10SM SCT037 BKN043 BKN100 19/11 A2957 RMK AO2 T01920110
Observed
Apr-19 @ 21:55 UTC
Wind
  • 260° at 16 KTS
  • Gusting to 26 KTS
Visibility
10 SM
Flight Rules
VFR
Cloud Levels
  • Scattered at 3,700' AGL
  • Broken at 4,300' AGL
  • Broken at 10,000' AGL
Temperature
19°C / 66°F
Dewpoint
11°C / 52°F
Humidity
60%
Altimeter
29.57" Hg
Pressure
1001.32 hPa